Time;durP1;ratioP1;P1;durP2;ratioP2;P2;SDS_P1;SDS_P2;PMS_P1;PMS_P2;Temp;Humidity;BMP_temperature;BMP_pressure;BME280_temperature;BME280_humidity;BME280_pressure;Samples;Min_cycle;Max_cycle;Signal;HPM_P1;HPM_P2
2022/01/16 03:43:11;;;;;;;2.58;1.52;;;;;;;2.78;100.00;95028.94;5570491;23;20045;-85
2022/01/16 03:45:37;;;;;;;3.90;1.80;;;;;;;2.58;100.00;95035.94;4998085;28;20035;-85
2022/01/16 03:48:02;;;;;;;4.00;1.35;;;;;;;2.60;100.00;95036.53;4997839;28;20312;-84
2022/01/16 03:50:28;;;;;;;3.00;1.38;;;;;;;2.52;100.00;95034.97;4993060;28;20041;-85
2022/01/16 03:52:53;;;;;;;3.22;1.58;;;;;;;2.35;100.00;95037.13;4988128;28;20325;-85
2022/01/16 03:55:19;;;;;;;3.53;1.50;;;;;;;2.29;100.00;95038.72;4978542;28;20031;-85
2022/01/16 03:57:45;;;;;;;3.47;1.60;;;;;;;2.54;100.00;95038.13;4987341;28;20059;-85
2022/01/16 04:00:11;;;;;;;2.67;1.65;;;;;;;2.69;100.00;95033.53;4980003;28;20046;-85
2022/01/16 04:02:36;;;;;;;3.85;1.77;;;;;;;2.49;100.00;95030.19;4963128;28;20026;-85
2022/01/16 04:05:02;;;;;;;2.92;1.42;;;;;;;2.51;100.00;95030.78;4972190;28;20034;-85
2022/01/16 04:07:33;;;;;;;2.83;1.42;;;;;;;2.57;100.00;95029.19;4982994;28;20064;-85
2022/01/16 04:09:59;;;;;;;3.08;1.80;;;;;;;2.60;100.00;95018.44;4997896;28;20034;-85
2022/01/16 04:12:24;;;;;;;5.70;1.45;;;;;;;2.60;100.00;95008.09;4985677;28;20030;-85
2022/01/16 04:17:18;;;;;;;3.00;1.30;;;;;;;2.60;100.00;95008.09;4994638;28;20667;-85
2022/01/16 04:19:44;;;;;;;2.50;1.30;;;;;;;2.58;100.00;95003.09;5009145;28;20121;-85
2022/01/16 04:22:10;;;;;;;3.03;1.52;;;;;;;2.38;100.00;94998.75;4994363;28;20034;-85
2022/01/16 04:24:35;;;;;;;4.70;1.63;;;;;;;2.40;100.00;95009.69;4977903;28;20039;-85
2022/01/16 04:27:02;;;;;;;2.40;1.48;;;;;;;2.46;100.00;95012.50;4984842;28;20089;-85
2022/01/16 04:29:27;;;;;;;3.30;1.42;;;;;;;2.36;100.00;95007.69;4979367;28;20058;-85
2022/01/16 04:31:53;;;;;;;3.28;1.55;;;;;;;2.41;100.00;95020.84;4978293;28;20137;-85
2022/01/16 04:34:18;;;;;;;3.95;1.33;;;;;;;2.40;100.00;95004.50;4977799;28;20061;-85
2022/01/16 04:36:44;;;;;;;2.15;1.30;;;;;;;2.21;100.00;95011.28;4977828;28;20022;-85
2022/01/16 04:39:15;;;;;;;3.25;1.20;;;;;;;2.10;100.00;95009.28;4977897;28;20093;-85
2022/01/16 04:44:26;;;;;;;2.83;1.13;;;;;;;2.07;100.00;94994.97;4977623;28;20037;-85
2022/01/16 04:46:52;;;;;;;6.35;1.52;;;;;;;2.21;100.00;95002.72;4977678;28;20416;-87
2022/01/16 04:49:17;;;;;;;2.95;1.33;;;;;;;2.02;100.00;94994.78;4994155;28;20090;-85
2022/01/16 04:51:43;;;;;;;2.20;1.25;;;;;;;1.98;100.00;94998.72;4977945;28;20035;-85
2022/01/16 04:54:08;;;;;;;2.63;1.20;;;;;;;1.99;100.00;95002.91;4977447;28;20038;-85
2022/01/16 04:56:34;;;;;;;2.22;1.20;;;;;;;2.00;100.00;95001.91;4978993;28;20065;-85
2022/01/16 04:58:59;;;;;;;2.20;1.30;;;;;;;2.01;100.00;94989.78;4977510;28;20101;-85
2022/01/16 05:01:25;;;;;;;3.08;1.30;;;;;;;1.91;100.00;94993.56;4978900;28;20039;-85
2022/01/16 05:03:51;;;;;;;2.83;1.30;;;;;;;1.95;100.00;94993.97;4977270;28;20046;-85
2022/01/16 05:06:16;;;;;;;1.80;1.00;;;;;;;2.07;100.00;95000.13;4977582;28;20125;-85
2022/01/16 05:08:42;;;;;;;2.67;1.00;;;;;;;1.95;100.00;94999.94;4976233;28;20141;-85
2022/01/16 05:11:09;;;;;;;3.30;1.50;;;;;;;1.88;100.00;95001.69;4978170;28;20355;-85
2022/01/16 05:18:50;;;;;;;3.72;1.50;;;;;;;1.76;100.00;94998.91;4991382;28;20082;-85
2022/01/16 05:21:16;;;;;;;4.07;1.50;;;;;;;1.68;100.00;94997.31;4978659;28;20027;-85
2022/01/16 05:23:42;;;;;;;3.20;1.48;;;;;;;1.78;100.00;94998.69;4978084;28;20062;-87
2022/01/16 05:26:08;;;;;;;2.47;1.30;;;;;;;1.69;100.00;94996.31;4977496;28;20035;-85
2022/01/16 05:28:34;;;;;;;2.10;1.27;;;;;;;1.76;100.00;95000.69;4961154;28;20030;-85
2022/01/16 05:30:59;;;;;;;3.55;1.50;;;;;;;1.83;100.00;94999.69;4979767;28;20034;-85
2022/01/16 05:33:25;;;;;;;2.85;1.60;;;;;;;1.91;100.00;94997.94;4997755;28;20026;-85
2022/01/16 05:35:50;;;;;;;3.38;1.77;;;;;;;1.97;100.00;94997.13;4976391;28;20427;-87
2022/01/16 05:38:16;;;;;;;3.50;1.60;;;;;;;1.92;100.00;94984.81;4977155;28;20454;-85
2022/01/16 05:40:43;;;;;;;2.47;1.15;;;;;;;2.00;100.00;94991.56;4978248;28;20458;-85
2022/01/16 05:43:09;;;;;;;2.72;1.27;;;;;;;2.24;100.00;94992.00;4993044;28;20424;-85
2022/01/16 05:45:35;;;;;;;1.95;1.35;;;;;;;1.93;100.00;94991.56;4982026;28;20081;-85
2022/01/16 05:48:01;;;;;;;2.15;1.35;;;;;;;1.72;100.00;94992.53;4976900;28;20038;-85
2022/01/16 05:50:27;;;;;;;4.75;1.70;;;;;;;1.66;100.00;94988.16;4976702;28;20042;-85
2022/01/16 05:52:58;;;;;;;3.00;1.58;;;;;;;1.73;100.00;94993.31;4978138;28;20031;-85
2022/01/16 05:55:27;;;;;;;1.63;1.05;;;;;;;1.70;100.00;94994.50;4976682;28;20038;-85
2022/01/16 05:57:52;;;;;;;4.93;1.60;;;;;;;1.74;100.00;94994.91;4978146;28;20027;-86
2022/01/16 06:00:18;;;;;;;3.83;1.70;;;;;;;1.89;100.00;94992.19;4992878;28;20061;-85
2022/01/16 06:02:44;;;;;;;3.08;1.50;;;;;;;1.83;100.00;95004.09;4992723;28;20043;-85
2022/01/16 06:05:10;;;;;;;3.47;1.40;;;;;;;1.81;100.00;94993.16;4976524;28;20089;-85
2022/01/16 06:07:35;;;;;;;4.38;1.77;;;;;;;1.79;100.00;94995.94;4976473;28;20062;-85
2022/01/16 06:10:01;;;;;;;4.20;1.38;;;;;;;1.81;100.00;95000.91;4977719;28;20034;-85
2022/01/16 06:12:27;;;;;;;3.80;1.30;;;;;;;2.12;100.00;94999.56;4976454;28;20351;-85
2022/01/16 06:14:52;;;;;;;2.55;1.52;;;;;;;1.96;100.00;94992.97;4976442;28;20507;-85
2022/01/16 06:17:18;;;;;;;2.55;1.10;;;;;;;1.88;100.00;94999.13;4976843;28;20082;-85
2022/01/16 06:19:43;;;;;;;4.03;1.65;;;;;;;1.95;100.00;94996.53;4977899;28;20078;-85
2022/01/16 06:22:09;;;;;;;1.90;1.25;;;;;;;2.18;100.00;94992.78;4980261;28;20031;-85
2022/01/16 06:24:34;;;;;;;2.25;1.20;;;;;;;2.10;100.00;94999.75;4979898;28;20037;-85
2022/01/16 06:27:00;;;;;;;2.67;1.30;;;;;;;2.11;100.00;94993.56;4981421;28;20043;-85
2022/01/16 06:29:25;;;;;;;3.03;1.58;;;;;;;2.23;100.00;94991.22;4981747;28;20456;-85
2022/01/16 06:31:51;;;;;;;3.17;1.05;;;;;;;2.07;100.00;94997.56;4980194;28;20026;-85
2022/01/16 06:34:16;;;;;;;1.63;0.80;;;;;;;2.25;100.00;94996.16;4979935;28;20038;-85
2022/01/16 06:36:42;;;;;;;2.72;1.00;;;;;;;2.16;100.00;95000.75;4981594;28;20349;-85
2022/01/16 06:39:09;;;;;;;2.75;0.90;;;;;;;2.08;100.00;95006.91;4963954;28;20081;-85
2022/01/16 06:41:34;;;;;;;3.83;1.17;;;;;;;2.03;100.00;95008.47;4980058;28;20432;-85
2022/01/16 06:44:00;;;;;;;1.98;1.00;;;;;;;1.89;100.00;95005.09;4979470;28;20045;-85
2022/01/16 06:46:26;;;;;;;2.47;1.17;;;;;;;1.96;100.00;95016.22;4996319;28;20066;-85
2022/01/16 06:48:52;;;;;;;1.65;0.98;;;;;;;1.99;100.00;95018.41;4996486;28;20038;-85
2022/01/16 06:51:19;;;;;;;1.00;0.80;;;;;;;1.92;100.00;95007.28;4980083;28;20325;-85
2022/01/16 06:53:49;;;;;;;1.52;0.85;;;;;;;1.92;100.00;95010.66;4979720;28;20030;-85
2022/01/16 06:56:16;;;;;;;1.50;0.82;;;;;;;2.01;100.00;95006.13;4980998;28;20035;-85
2022/01/16 06:58:41;;;;;;;2.58;1.15;;;;;;;1.94;100.00;95003.50;4979867;28;20101;-85
2022/01/16 07:01:07;;;;;;;1.65;1.00;;;;;;;2.01;100.00;95006.13;4995862;28;20035;-85
2022/01/16 07:03:33;;;;;;;4.35;1.10;;;;;;;2.18;100.00;95018.66;4979581;28;20114;-85
2022/01/16 07:06:00;;;;;;;2.20;0.90;;;;;;;2.16;100.00;95018.06;4979872;28;20039;-85
2022/01/16 07:08:26;;;;;;;2.30;1.10;;;;;;;2.19;100.00;95028.78;4979839;28;20039;-85
2022/01/16 07:10:54;;;;;;;2.55;1.25;;;;;;;2.26;100.00;95021.84;4980961;28;20085;-85
2022/01/16 07:13:21;;;;;;;2.63;1.10;;;;;;;2.35;100.00;95030.19;4979687;28;20340;-86
2022/01/16 07:15:47;;;;;;;3.42;1.38;;;;;;;2.40;100.00;95035.53;4966598;28;20030;-86
2022/01/16 07:18:12;;;;;;;2.90;1.10;;;;;;;2.45;100.00;95031.59;5013915;28;20038;-86
2022/01/16 07:20:38;;;;;;;2.05;1.00;;;;;;;2.57;100.00;95034.38;4980732;28;20035;-85
2022/01/16 07:23:04;;;;;;;1.73;1.10;;;;;;;2.61;100.00;95025.19;4984997;28;20393;-85
2022/01/16 07:25:29;;;;;;;3.20;1.20;;;;;;;2.55;100.00;95024.19;4994904;28;20129;-85
2022/01/16 07:27:55;;;;;;;1.60;1.10;;;;;;;2.67;100.00;95027.00;4980560;28;20343;-86
2022/01/16 07:30:20;;;;;;;2.03;1.17;;;;;;;3.01;100.00;95024.31;4980675;28;20038;-85
2022/01/16 07:32:46;;;;;;;1.77;1.05;;;;;;;3.20;100.00;95022.69;4979837;28;20033;-85
2022/01/16 07:35:11;;;;;;;4.45;1.45;;;;;;;3.26;100.00;95027.06;4984859;28;20030;-86
2022/01/16 07:37:37;;;;;;;2.33;1.27;;;;;;;3.30;100.00;95024.84;5014829;28;20318;-85
2022/01/16 07:40:02;;;;;;;2.70;1.15;;;;;;;3.39;100.00;95018.44;4999623;28;20423;-86
2022/01/16 07:42:28;;;;;;;3.08;1.40;;;;;;;3.40;100.00;95022.63;5014598;28;20462;-85
2022/01/16 07:44:54;;;;;;;5.65;1.10;;;;;;;3.48;100.00;95022.41;5014391;28;20085;-86
2022/01/16 07:47:19;;;;;;;2.55;1.30;;;;;;;3.70;100.00;95029.09;5014508;28;20065;-85
2022/01/16 07:49:45;;;;;;;2.40;1.10;;;;;;;3.60;100.00;95027.72;5014887;28;20073;-85
2022/01/16 07:52:10;;;;;;;3.83;1.30;;;;;;;3.64;100.00;95021.13;5014481;28;20117;-85
2022/01/16 07:54:36;;;;;;;2.60;1.10;;;;;;;3.76;100.00;95013.50;4999194;28;20346;-85
2022/01/16 07:57:02;;;;;;;2.72;1.20;;;;;;;3.90;100.00;95019.38;5014746;28;20351;-85
2022/01/16 07:59:28;;;;;;;2.75;1.25;;;;;;;3.93;100.00;95013.78;4999539;28;20447;-86
2022/01/16 08:01:53;;;;;;;3.45;1.65;;;;;;;3.84;100.00;95015.06;4999566;28;20041;-85
2022/01/16 08:04:19;;;;;;;2.63;1.30;;;;;;;3.85;100.00;95014.03;4999023;28;20038;-85
2022/01/16 08:06:44;;;;;;;2.80;1.20;;;;;;;3.84;100.00;95027.19;5014413;28;20093;-85
2022/01/16 08:09:10;;;;;;;2.53;1.08;;;;;;;4.00;100.00;95031.09;5014256;28;20045;-84
2022/01/16 08:11:35;;;;;;;1.90;1.00;;;;;;;3.93;100.00;95033.75;4999328;28;20451;-85
2022/01/16 08:14:00;;;;;;;1.75;1.13;;;;;;;3.98;100.00;95026.13;4998886;28;20038;-85
2022/01/16 08:16:27;;;;;;;2.78;1.20;;;;;;;4.00;100.00;95024.09;5013909;28;20022;-85
2022/01/16 08:18:52;;;;;;;2.20;1.15;;;;;;;4.10;100.00;95032.22;5014386;28;20411;-85
2022/01/16 08:21:17;;;;;;;3.00;1.40;;;;;;;4.24;100.00;95037.34;4998623;28;20038;-85
2022/01/16 08:23:43;;;;;;;2.33;1.20;;;;;;;4.17;100.00;95039.19;5013835;28;20129;-85
2022/01/16 08:26:08;;;;;;;2.50;1.10;;;;;;;4.18;100.00;95040.78;4997710;28;20038;-85
2022/01/16 08:28:34;;;;;;;3.30;1.10;;;;;;;4.20;100.00;95041.38;4998999;28;20114;-85
2022/01/16 08:30:59;;;;;;;2.72;1.13;;;;;;;4.27;100.00;95044.69;4997434;28;20030;-85
2022/01/16 08:33:25;;;;;;;2.00;1.10;;;;;;;4.34;100.00;95040.25;4998571;28;20093;-85
2022/01/16 08:35:50;;;;;;;3.65;1.30;;;;;;;4.46;100.00;95048.16;5013294;28;20074;-85
2022/01/16 08:38:16;;;;;;;2.65;1.02;;;;;;;4.56;100.00;95046.88;4997545;28;20443;-85
2022/01/16 08:40:41;;;;;;;3.38;1.40;;;;;;;4.53;100.00;95041.13;5013890;28;20041;-85
2022/01/16 08:43:09;;;;;;;2.13;1.05;;;;;;;4.59;100.00;95036.88;4998603;28;20034;-85
2022/01/16 08:45:36;;;;;;;1.40;1.00;;;;;;;4.69;100.00;95044.19;5012036;28;20042;-85
2022/01/16 08:48:03;;;;;;;2.10;1.30;;;;;;;4.76;100.00;95046.72;5013723;28;20037;-85
2022/01/16 08:50:28;;;;;;;2.00;1.00;;;;;;;4.76;100.00;95046.72;5013364;28;20030;-85
2022/01/16 08:52:54;;;;;;;3.17;1.60;;;;;;;4.75;100.00;95058.91;5013448;28;20041;-85
2022/01/16 08:55:19;;;;;;;2.70;1.40;;;;;;;4.80;100.00;95051.25;4997769;28;20089;-85
2022/01/16 08:57:45;;;;;;;3.33;1.48;;;;;;;4.89;100.00;95046.59;4998434;28;20030;-85
2022/01/16 09:00:11;;;;;;;3.03;1.52;;;;;;;4.91;100.00;95062.75;4997178;28;20026;-85
2022/01/16 09:02:37;;;;;;;4.22;1.60;;;;;;;4.89;100.00;95059.59;5013594;28;20444;-85
2022/01/16 09:05:04;;;;;;;6.82;1.40;;;;;;;4.83;100.00;95052.63;5013590;28;20044;-84
2022/01/16 09:07:29;;;;;;;4.55;1.10;;;;;;;4.83;100.00;95055.22;4996943;28;20038;-85
2022/01/16 09:09:56;;;;;;;4.43;1.23;;;;;;;4.86;100.00;95057.41;5013351;28;20046;-84
2022/01/16 09:12:23;;;;;;;2.03;1.20;;;;;;;4.89;100.00;95062.19;5012782;28;20114;-84
2022/01/16 09:14:48;;;;;;;2.97;1.00;;;;;;;5.01;100.00;95061.47;5012450;28;20026;-84
2022/01/16 09:17:14;;;;;;;2.45;1.27;;;;;;;5.07;100.00;95055.44;4998136;28;20041;-84
2022/01/16 09:19:39;;;;;;;2.22;1.08;;;;;;;5.18;100.00;95062.50;5013292;28;20038;-84
2022/01/16 09:22:05;;;;;;;1.70;0.90;;;;;;;5.17;100.00;95066.13;4996705;28;20053;-84
2022/01/16 09:24:31;;;;;;;2.22;1.20;;;;;;;5.29;100.00;95070.56;4997637;28;20045;-84
2022/01/16 09:26:56;;;;;;;2.28;1.20;;;;;;;5.35;100.00;95072.31;4996686;28;20026;-84
2022/01/16 09:29:22;;;;;;;2.58;0.95;;;;;;;5.32;100.00;95067.56;5013137;28;20034;-84
2022/01/16 09:31:47;;;;;;;2.15;1.20;;;;;;;5.41;100.00;95071.44;5012711;28;20041;-84
2022/01/16 09:34:13;;;;;;;2.13;0.98;;;;;;;5.47;100.00;95065.41;5012325;28;20133;-84
2022/01/16 09:36:38;;;;;;;2.15;0.90;;;;;;;5.43;100.00;95069.44;4997828;28;20037;-84
2022/01/16 09:39:04;;;;;;;4.07;1.25;;;;;;;5.48;100.00;95071.38;4996274;28;20054;-84
2022/01/16 09:41:29;;;;;;;2.83;1.02;;;;;;;5.59;100.00;95064.66;5012906;28;20089;-84
2022/01/16 09:43:55;;;;;;;2.53;1.20;;;;;;;5.62;100.00;95056.44;5012191;28;20143;-84
2022/01/16 09:46:20;;;;;;;2.60;1.40;;;;;;;5.73;100.00;95060.09;5012814;28;20038;-84
2022/01/16 09:48:48;;;;;;;3.80;1.20;;;;;;;5.74;100.00;95056.50;4997657;28;20034;-84
2022/01/16 09:51:13;;;;;;;2.97;1.52;;;;;;;5.99;100.00;95053.75;4997630;28;20058;-84
2022/01/16 09:53:42;;;;;;;2.08;1.15;;;;;;;5.87;100.00;95050.31;5012306;28;20073;-84
2022/01/16 09:56:09;;;;;;;2.88;1.33;;;;;;;5.92;100.00;95046.03;4996965;28;20030;-84
2022/01/16 09:58:34;;;;;;;2.15;1.30;;;;;;;5.90;100.00;95042.09;5012951;28;20038;-84
2022/01/16 10:01:00;;;;;;;2.78;1.30;;;;;;;6.05;100.00;95039.09;5012252;28;20494;-84
2022/01/16 10:03:51;;;;;;;2.40;1.10;;;;;;;6.25;100.00;95038.81;4997483;28;20034;-84
2022/01/16 10:06:20;;;;;;;3.50;1.33;;;;;;;6.18;100.00;95032.94;5009648;28;20073;-84
2022/01/16 10:08:47;;;;;;;5.95;3.22;;;;;;;6.24;100.00;95032.03;4997473;28;20531;-84
2022/01/16 10:11:25;;;;;;;3.28;1.55;;;;;;;6.43;100.00;95024.94;4983131;28;20030;-84
2022/01/16 10:14:08;;;;;;;2.15;1.40;;;;;;;6.43;100.00;95029.34;4988332;28;20351;-84
2022/01/16 10:16:39;;;;;;;1.85;1.02;;;;;;;6.40;100.00;95022.00;5010430;28;20033;-84
2022/01/16 10:19:18;;;;;;;2.13;1.13;;;;;;;6.55;100.00;95024.16;4997086;28;20109;-84
2022/01/16 10:21:44;;;;;;;8.93;3.42;;;;;;;6.57;100.00;95022.91;4995949;28;20037;-84
2022/01/16 10:24:22;;;;;;;10.32;3.72;;;;;;;6.71;100.00;95010.47;4996799;28;20440;-84
2022/01/16 10:26:50;;;;;;;15.43;7.22;;;;;;;6.76;100.00;95012.41;4995819;28;20444;-84
2022/01/16 10:29:19;;;;;;;2.55;1.60;;;;;;;6.86;100.00;95004.03;4996118;28;20069;-84
2022/01/16 10:31:45;;;;;;;2.70;1.42;;;;;;;6.98;100.00;95001.41;4996105;28;20034;-84
2022/01/16 10:34:27;;;;;;;2.53;1.30;;;;;;;7.10;100.00;94999.56;4995588;28;20034;-84
2022/01/16 10:36:52;;;;;;;5.35;1.67;;;;;;;7.20;100.00;94994.56;4995796;28;20030;-84
2022/01/16 10:39:18;;;;;;;3.67;1.50;;;;;;;7.28;97.96;94987.41;4979837;28;20034;-84
2022/01/16 10:41:43;;;;;;;4.18;1.63;;;;;;;7.34;94.50;94979.47;4997188;28;20042;-85
2022/01/16 10:44:30;;;;;;;4.72;1.60;;;;;;;7.33;99.56;94984.91;4995175;28;20461;-85
2022/01/16 10:46:56;;;;;;;3.00;1.52;;;;;;;7.48;94.72;94974.78;4995836;28;20424;-85
2022/01/16 10:49:21;;;;;;;2.78;1.50;;;;;;;7.60;94.72;94973.91;4995745;28;20029;-85
2022/01/16 10:52:09;;;;;;;2.70;1.33;;;;;;;7.56;89.70;94967.59;4995782;28;20030;-85
2022/01/16 10:54:37;;;;;;;2.63;1.50;;;;;;;7.45;88.37;94956.19;4996716;28;20066;-85
2022/01/16 10:57:23;;;;;;;3.00;1.52;;;;;;;7.57;92.77;94959.56;4994583;28;20313;-85
2022/01/16 10:59:49;;;;;;;4.45;1.85;;;;;;;7.67;90.38;94958.94;4992163;28;20432;-85
2022/01/16 11:02:14;;;;;;;3.30;1.73;;;;;;;7.55;89.42;94952.97;4977559;28;20046;-85
2022/01/16 11:04:40;;;;;;;4.15;1.85;;;;;;;7.53;90.47;94953.22;4975710;28;20380;-85
2022/01/16 11:07:07;;;;;;;5.00;1.90;;;;;;;7.65;94.74;94947.97;4960118;28;20030;-85
2022/01/16 11:09:32;;;;;;;3.40;1.58;;;;;;;7.71;94.66;94949.63;4979921;28;20031;-85
2022/01/16 11:12:00;;;;;;;4.05;1.90;;;;;;;7.67;94.26;94945.09;4995639;28;20031;-85
2022/01/16 11:14:27;;;;;;;3.33;1.60;;;;;;;7.84;94.06;94937.31;4979400;28;20034;-85
2022/01/16 11:16:55;;;;;;;3.50;1.95;;;;;;;7.68;96.82;94939.66;4979505;28;20441;-85
2022/01/16 11:19:23;;;;;;;3.85;2.00;;;;;;;7.72;100.00;94930.31;4980876;28;20064;-85
2022/01/16 11:21:53;;;;;;;3.38;1.88;;;;;;;7.89;98.37;94930.34;4979951;28;20089;-85
2022/01/16 11:24:47;;;;;;;3.33;1.92;;;;;;;7.93;92.97;94931.47;4979062;28;20442;-85
2022/01/16 11:27:15;;;;;;;;;;;;;;;8.06;96.32;94927.78;4980243;28;20099;-85
2022/01/16 11:29:41;;;;;;;3.58;1.50;;;;;;;8.03;95.41;94937.88;4979502;28;19910;-84
2022/01/16 11:32:09;;;;;;;3.63;1.85;;;;;;;8.17;94.67;94925.28;4979355;28;20467;-89
2022/01/16 11:34:35;;;;;;;4.13;1.83;;;;;;;8.22;88.65;94928.00;4993821;28;20031;-85
2022/01/16 11:37:02;;;;;;;4.82;2.30;;;;;;;8.31;90.16;94915.34;4981207;28;20035;-85
2022/01/16 11:39:35;;;;;;;6.82;2.28;;;;;;;8.30;82.87;94919.75;4982428;28;20034;-85
2022/01/16 11:42:02;;;;;;;4.00;2.10;;;;;;;8.34;84.00;94920.88;4998462;28;20038;-85
2022/01/16 11:44:29;;;;;;;4.90;1.92;;;;;;;8.35;85.49;94916.44;4999055;28;20069;-85
2022/01/16 11:46:58;;;;;;;5.55;2.25;;;;;;;8.42;83.06;94917.06;5014446;28;20032;-85
2022/01/16 11:49:31;;;;;;;4.10;1.98;;;;;;;8.58;84.89;94923.31;4994947;28;20031;-85
2022/01/16 11:52:02;;;;;;;5.30;2.47;;;;;;;8.54;88.51;94918.84;4981266;28;20102;-85
2022/01/16 11:54:31;;;;;;;6.28;2.70;;;;;;;8.75;88.32;94925.91;4993858;28;20466;-84
2022/01/16 11:57:23;;;;;;;6.07;3.35;;;;;;;8.73;83.23;94916.72;5010467;28;20041;-85
2022/01/16 11:59:54;;;;;;;5.60;3.22;;;;;;;8.66;86.53;94910.88;4978950;28;20030;-85
2022/01/16 12:02:24;;;;;;;7.68;4.07;;;;;;;8.69;88.35;94923.47;4995165;28;20039;-85
2022/01/16 12:04:54;;;;;;;9.15;3.95;;;;;;;8.79;87.27;94921.00;4978113;28;20031;-85
2022/01/16 12:07:20;;;;;;;10.18;4.03;;;;;;;8.85;86.46;94920.00;4963128;28;20069;-85
2022/01/16 12:09:57;;;;;;;10.63;4.45;;;;;;;8.90;87.23;94922.72;4979637;28;20433;-85
2022/01/16 12:12:23;;;;;;;10.85;4.80;;;;;;;9.00;85.79;94921.22;4978801;28;20031;-85
2022/01/16 12:14:52;;;;;;;10.60;4.22;;;;;;;8.94;84.08;94924.81;4979456;28;20436;-85
2022/01/16 12:17:33;;;;;;;11.93;4.68;;;;;;;9.11;95.25;94928.16;4979776;28;20051;-85
2022/01/16 12:20:11;;;;;;;11.50;5.53;;;;;;;9.24;90.18;94927.00;4978308;28;20101;-85
2022/01/16 12:22:43;;;;;;;14.20;6.28;;;;;;;9.01;86.24;94915.78;4979692;28;20061;-85
2022/01/16 12:25:36;;;;;;;13.90;7.05;;;;;;;8.88;90.57;94916.91;4979257;28;20042;-85
2022/01/16 12:28:04;;;;;;;17.55;8.40;;;;;;;8.93;97.40;94915.41;4979244;28;20035;-85
2022/01/16 12:30:35;;;;;;;19.48;8.20;;;;;;;9.04;96.32;94907.44;4979534;28;20042;-85
2022/01/16 12:33:30;;;;;;;23.02;9.98;;;;;;;9.00;100.00;94910.78;4977990;28;20125;-85
2022/01/16 12:35:58;;;;;;;20.38;10.45;;;;;;;9.05;100.00;94913.47;4963179;28;20051;-85
2022/01/16 12:38:26;;;;;;;18.63;9.73;;;;;;;8.93;97.41;94905.72;4979145;28;20073;-85
2022/01/16 12:41:05;;;;;;;18.42;9.43;;;;;;;9.12;93.47;94908.06;4978000;28;20326;-84
2022/01/16 12:43:33;;;;;;;16.48;8.50;;;;;;;9.09;89.65;94916.38;4978726;28;20130;-84
2022/01/16 12:46:03;;;;;;;15.80;8.45;;;;;;;9.38;85.56;94914.34;4977914;28;20097;-84
2022/01/16 12:48:30;;;;;;;17.88;9.05;;;;;;;9.18;87.69;94914.91;4977968;28;20042;-84
2022/01/16 12:51:03;;;;;;;21.38;10.15;;;;;;;9.32;90.90;94913.50;4978007;28;20039;-84
2022/01/16 12:54:03;;;;;;;20.75;9.82;;;;;;;8.97;89.52;94903.44;4978162;28;20050;-84
2022/01/16 12:56:37;;;;;;;20.67;10.70;;;;;;;8.98;89.61;94905.81;4970223;28;20043;-84
2022/01/16 12:59:06;;;;;;;24.75;11.27;;;;;;;8.89;90.05;94904.66;4977877;28;20035;-84
2022/01/16 13:01:32;;;;;;;22.15;11.43;;;;;;;8.94;97.09;94898.69;4978913;28;20041;-84
2022/01/16 13:03:57;;;;;;;28.15;13.07;;;;;;;8.99;97.07;94896.94;4977357;28;20039;-84
2022/01/16 13:06:24;;;;;;;27.83;13.27;;;;;;;9.00;99.61;94892.47;4995274;28;20030;-84
2022/01/16 13:08:59;;;;;;;22.33;11.23;;;;;;;9.34;92.40;94889.72;4997004;28;20035;-84
2022/01/16 13:11:30;;;;;;;26.23;13.25;;;;;;;9.23;94.84;94882.81;4998044;28;20057;-83
2022/01/16 13:13:56;;;;;;;31.35;15.57;;;;;;;9.22;94.68;94876.00;4996674;28;20038;-84
2022/01/16 13:16:24;;;;;;;31.83;15.77;;;;;;;9.17;99.55;94867.06;4998073;28;20038;-84
2022/01/16 13:19:00;;;;;;;31.95;14.88;;;;;;;9.01;98.60;94862.69;4998085;28;20038;-85
2022/01/16 13:21:35;;;;;;;35.03;17.17;;;;;;;9.11;99.62;94857.59;4998102;28;20034;-85
2022/01/16 13:24:01;;;;;;;35.13;18.10;;;;;;;9.13;99.25;94855.50;4997674;28;20403;-85
2022/01/16 13:26:28;;;;;;;38.05;15.77;;;;;;;9.05;98.88;94848.13;4996687;28;20061;-85
2022/01/16 13:29:06;;;;;;;26.73;14.27;;;;;;;9.03;87.33;94852.78;4996786;28;20348;-85
2022/01/16 13:31:36;;;;;;;33.08;16.92;;;;;;;8.95;89.11;94866.31;4995787;28;20037;-85
2022/01/16 13:34:16;;;;;;;32.88;16.63;;;;;;;8.92;91.94;94857.13;4996296;28;20061;-85
2022/01/16 13:37:00;;;;;;;35.03;16.95;;;;;;;8.81;93.45;94853.59;4996517;28;20026;-85
2022/01/16 13:39:44;;;;;;;34.38;18.33;;;;;;;8.99;99.69;94857.72;4977114;28;20050;-85
2022/01/16 13:42:10;;;;;;;34.28;16.35;;;;;;;9.18;98.35;94850.34;4978389;28;20039;-85
2022/01/16 13:44:35;;;;;;;124.80;49.90;;;;;;;9.05;100.00;94853.34;4977807;28;20069;-85
2022/01/16 13:47:01;;;;;;;44.22;20.23;;;;;;;9.10;94.40;94850.78;4978170;28;20449;-85
2022/01/16 13:49:27;;;;;;;35.13;17.33;;;;;;;9.07;91.51;94838.22;4976762;28;20502;-85
2022/01/16 13:52:00;;;;;;;36.25;18.02;;;;;;;9.26;93.91;94838.66;4976750;28;20045;-85
2022/01/16 13:54:30;;;;;;;33.38;18.48;;;;;;;9.16;95.14;94841.94;4994773;28;20030;-85
2022/01/16 13:56:57;;;;;;;32.60;16.92;;;;;;;8.88;100.00;94843.75;5012413;28;20018;-85
2022/01/16 13:59:23;;;;;;;41.50;20.45;;;;;;;8.86;100.00;94839.81;5012342;28;20058;-85
2022/01/16 14:01:53;;;;;;;56.65;23.73;;;;;;;9.02;100.00;94843.38;4996310;28;20068;-85
2022/01/16 14:04:20;;;;;;;35.38;18.73;;;;;;;9.02;100.00;94838.13;4995871;28;20037;-85
2022/01/16 14:06:59;;;;;;;34.70;17.33;;;;;;;8.89;100.00;94840.13;4996271;28;20034;-85
2022/01/16 14:09:24;;;;;;;32.97;16.40;;;;;;;8.82;100.00;94836.88;4996110;28;20062;-85
2022/01/16 14:11:52;;;;;;;33.45;17.05;;;;;;;8.67;100.00;94834.09;4996227;28;20034;-85
2022/01/16 14:14:20;;;;;;;30.05;16.73;;;;;;;8.72;100.00;94836.75;4995865;28;20121;-85
2022/01/16 14:17:03;;;;;;;36.92;18.88;;;;;;;8.77;100.00;94840.22;4996207;28;20032;-85
2022/01/16 14:22:11;;;;;;;38.90;19.13;;;;;;;8.56;100.00;94833.97;4997683;28;20045;-85
2022/01/16 14:24:45;;;;;;;45.75;18.98;;;;;;;8.27;100.00;94835.94;4995761;28;20090;-85
2022/01/16 14:27:15;;;;;;;38.63;17.90;;;;;;;8.10;100.00;94826.28;4997185;28;20066;-85
2022/01/16 14:29:43;;;;;;;35.78;18.73;;;;;;;8.17;100.00;94833.94;4995893;28;20030;-85
2022/01/16 14:32:10;;;;;;;35.35;18.00;;;;;;;8.38;100.00;94836.84;4996026;28;20394;-85
2022/01/16 14:34:36;;;;;;;39.83;18.05;;;;;;;8.51;97.47;94833.13;4995672;28;20076;-85
2022/01/16 14:37:03;;;;;;;35.42;18.27;;;;;;;8.35;100.00;94825.06;4996889;28;20448;-85
2022/01/16 14:39:38;;;;;;;36.90;17.55;;;;;;;8.28;98.79;94827.84;4993919;28;20309;-85
2022/01/16 14:42:05;;;;;;;34.92;17.52;;;;;;;8.02;100.00;94827.47;4977261;28;20444;-85
2022/01/16 14:44:32;;;;;;;34.35;17.95;;;;;;;7.64;100.00;94829.00;4982294;28;20039;-85
2022/01/16 14:47:00;;;;;;;38.17;18.33;;;;;;;7.31;100.00;94833.16;4988636;28;20132;-85
2022/01/16 14:49:26;;;;;;;43.95;17.73;;;;;;;7.16;100.00;94831.84;4999249;28;20069;-85
2022/01/16 14:51:52;;;;;;;36.58;18.15;;;;;;;7.14;100.00;94833.91;5015735;28;20105;-85
2022/01/16 14:54:17;;;;;;;34.70;16.80;;;;;;;6.78;100.00;94839.25;5015541;28;20339;-85
2022/01/16 14:56:43;;;;;;;36.85;18.20;;;;;;;7.00;100.00;94843.03;4996191;28;20034;-85
2022/01/16 14:59:10;;;;;;;36.83;18.17;;;;;;;7.13;100.00;94850.56;4980025;28;20440;-85
2022/01/16 15:01:37;;;;;;;37.35;17.33;;;;;;;6.85;100.00;94853.97;4979717;28;20062;-85
2022/01/16 15:04:03;;;;;;;35.67;16.00;;;;;;;6.89;100.00;94850.69;4980322;28;20118;-85
2022/01/16 15:06:29;;;;;;;35.88;16.65;;;;;;;6.91;100.00;94853.84;4979574;28;20065;-85
2022/01/16 15:08:57;;;;;;;32.00;15.80;;;;;;;6.55;100.00;94860.94;4980979;28;20114;-85
2022/01/16 15:11:24;;;;;;;37.97;17.02;;;;;;;6.41;100.00;94863.00;4984802;28;20117;-85
2022/01/16 15:13:50;;;;;;;34.30;17.08;;;;;;;6.16;100.00;94858.00;4998518;28;20084;-85
2022/01/16 15:16:23;;;;;;;31.95;15.68;;;;;;;6.02;100.00;94875.69;4998919;28;20073;-85
2022/01/16 15:18:49;;;;;;;34.38;17.00;;;;;;;5.93;100.00;94877.78;5014241;28;20109;-85
2022/01/16 15:21:15;;;;;;;34.38;16.48;;;;;;;5.92;100.00;94884.00;5015447;28;20479;-85
2022/01/16 15:23:41;;;;;;;33.58;15.82;;;;;;;5.77;100.00;94882.63;4982593;28;20058;-85
2022/01/16 15:26:06;;;;;;;27.83;13.77;;;;;;;5.62;100.00;94884.88;4995814;28;20422;-85
2022/01/16 15:28:32;;;;;;;27.02;13.18;;;;;;;5.58;100.00;94884.50;4962922;28;20041;-85
2022/01/16 15:30:58;;;;;;;28.17;12.60;;;;;;;5.64;100.00;94890.63;4994767;28;20037;-85